Atlantic City, NJ

6:09 PM EDT en Octubre 31, 2014 (GMT -0400)
Brigantine DPW | Change Station
CLOSE
Current Station
Estación meteorológica personal
Location: Brigantine, NJ
Altura: 16 ft
Estaciones meteorológicas cercanas
Aviso en curso: Coastal Flood Advisory

Alt 16 ft 39.39 °N, 74.39 °W | Updated 10 minutes ago

Nublado
Nublado
53.0 ° F
Sensación térmica 53.0 ° F
N
8.0
Viento Variable Viento desde NNO
Gusts 13.0 mph

Hoy
Alta -- | Baja -- ° F
--% Posibilidad de precipitaciones
Ayer
Alta -- | Baja -- ° F
Precip. -- pul
7:24 AM 5:57 PM
Cuarto creciente, 59% visible
Presión 29.86 pul
Visibilidad 10.0 Millas
Nubes Muy nublado 4700 ft
Nublado 7000 ft
Punto de rocío 47 ° F
Humedad 81%
Precipitaciones 0.00 pul
Espesor de la nieve No disponible.
UV 0.0 de una escala de 12
Polen .30 de una escala de 12
Calidad del aire No disponible.
Flu Activity No disponible.
METAR KACY 312154Z 01008KT 10SM BKN047 OVC070 11/06 A2985 RMK AO2 SLP110 T01060056

More Conditions Fewer Conditions

Presión 29.86 pul
Visibilidad 10.0 Millas
Nubes Muy nublado 4700 ft
Nublado 7000 ft
Punto de rocío 47 ° F
Humedad 81%
Precipitaciones 0.00 pul
Espesor de la nieve No disponible.
UV 0.0 de una escala de 12
Polen .30 de una escala de 12
Calidad del aire No disponible.
Flu Activity No disponible.
METAR KACY 312154Z 01008KT 10SM BKN047 OVC070 11/06 A2985 RMK AO2 SLP110 T01060056

More Conditions Fewer Conditions

10-Day Weather Forecast

Almanac

Astronomía

Oct. 31, 2014 Salida Puesta
Hora real
Crepúsculo civil
Crepúsculo náutico
Crepúsculo astronómico
Luna
Horas de luz
Horas de luz
Tomorrow will be .
, % of the Moon is Illuminated

Extremos de hoy

Máximos del estado Bajos del estado

Community

WunderPhotos

Upload Photos

1,766,751 ¡fotos cargadas!

WunderBlogs® & News

Nearby

Calidad del aire

  Calidad del aire Índice AQ Contaminante
Not available.

Grosos de nieve

Estación Profundido Altura

Actividad de terremotos

Ciudad Distance Mag. Tiempo y dato
Magnitud mínima muestra es 2,5.

Temperaturas de aguas costeras

Lugar Temperatura

Estaciones meteorológicas cercanas